Time;durP1;ratioP1;P1;durP2;ratioP2;P2;SDS_P1;SDS_P2;PMS_P1;PMS_P2;Temp;Humidity;BMP_temperature;BMP_pressure;BME280_temperature;BME280_humidity;BME280_pressure;Samples;Min_cycle;Max_cycle;Signal;HPM_P1;HPM_P2
2023/06/27 00:02:20;;;;;;;3.53;2.15;;;13.80;99.90;;;;;;5122909;27;20110;-63
2023/06/27 00:04:47;;;;;;;6.43;2.15;;;13.80;99.90;;;;;;5123331;27;20051;-62
2023/06/27 00:07:13;;;;;;;5.18;2.25;;;13.80;99.90;;;;;;5103468;27;20051;-63
2023/06/27 00:09:39;;;;;;;3.95;2.22;;;13.70;99.90;;;;;;5122590;27;20417;-62
2023/06/27 00:12:08;;;;;;;5.45;2.42;;;13.70;99.90;;;;;;5132208;27;20110;-62
2023/06/27 00:14:37;;;;;;;4.28;2.15;;;13.70;99.90;;;;;;5116906;27;20858;-61
2023/06/27 00:17:12;;;;;;;5.60;2.28;;;13.70;99.90;;;;;;5134408;27;20036;-63
2023/06/27 00:19:38;;;;;;;5.22;2.28;;;13.60;99.90;;;;;;5139234;27;20039;-64
2023/06/27 00:22:09;;;;;;;6.43;2.50;;;13.60;99.90;;;;;;5118310;27;20041;-63
2023/06/27 00:24:35;;;;;;;4.30;2.38;;;13.60;99.90;;;;;;5136094;27;20027;-62
2023/06/27 00:27:00;;;;;;;6.53;2.47;;;13.50;99.90;;;;;;5143479;27;20035;-63
2023/06/27 00:29:27;;;;;;;5.75;2.80;;;13.50;99.90;;;;;;5128128;27;20411;-62
2023/06/27 00:31:53;;;;;;;4.97;2.60;;;13.50;99.90;;;;;;5124161;27;20118;-63
2023/06/27 00:34:18;;;;;;;4.05;2.38;;;13.50;99.90;;;;;;5125466;27;20113;-62
2023/06/27 00:36:44;;;;;;;4.70;2.67;;;13.50;99.90;;;;;;5125273;27;20031;-62
2023/06/27 00:39:09;;;;;;;5.22;2.90;;;13.50;99.90;;;;;;5152630;27;20049;-64
2023/06/27 00:41:35;;;;;;;6.35;2.40;;;13.40;99.90;;;;;;5134649;27;20402;-63
2023/06/27 00:44:06;;;;;;;6.68;2.53;;;13.40;99.90;;;;;;5143744;27;20072;-63
2023/06/27 00:46:37;;;;;;;6.18;2.63;;;13.40;99.90;;;;;;5141991;27;20035;-63
2023/06/27 00:49:06;;;;;;;7.00;2.30;;;13.30;99.90;;;;;;5128100;27;20055;-64
2023/06/27 00:51:32;;;;;;;3.78;2.47;;;13.30;99.90;;;;;;5122134;27;20039;-62
2023/06/27 00:53:58;;;;;;;4.88;2.78;;;13.30;99.90;;;;;;5125318;27;20069;-64
2023/06/27 00:56:26;;;;;;;4.97;2.95;;;13.30;99.90;;;;;;5120812;27;20118;-62
2023/06/27 00:58:53;;;;;;;5.57;2.88;;;13.30;99.90;;;;;;5124675;27;20050;-62
2023/06/27 01:01:19;;;;;;;6.53;3.20;;;13.30;99.90;;;;;;5122360;27;20062;-63
2023/06/27 01:03:45;;;;;;;4.20;2.60;;;13.30;99.90;;;;;;5128999;27;20048;-63
2023/06/27 01:06:36;;;;;;;4.82;2.92;;;13.30;99.90;;;;;;5132017;27;20401;-63
2023/06/27 01:09:27;;;;;;;6.78;3.05;;;13.30;99.90;;;;;;5125735;27;20080;-62
2023/06/27 01:12:15;;;;;;;5.30;2.95;;;13.20;99.90;;;;;;5144790;27;20031;-62
2023/06/27 01:14:45;;;;;;;5.97;3.10;;;13.20;99.90;;;;;;5124632;27;20481;-63
2023/06/27 01:17:13;;;;;;;10.13;3.50;;;13.20;99.90;;;;;;5145290;27;20047;-63
2023/06/27 01:19:43;;;;;;;3.60;2.78;;;13.10;99.90;;;;;;5128481;27;20050;-64
2023/06/27 01:22:12;;;;;;;5.95;2.85;;;13.10;99.90;;;;;;5150189;27;20024;-63
2023/06/27 01:24:38;;;;;;;4.47;3.03;;;13.10;99.90;;;;;;5125589;27;20053;-64
2023/06/27 01:27:04;;;;;;;6.53;3.00;;;13.10;99.90;;;;;;5123454;27;20039;-63
2023/06/27 01:29:30;;;;;;;6.15;3.13;;;13.10;99.90;;;;;;5121929;27;20035;-63
2023/06/27 01:32:06;;;;;;;6.32;3.38;;;13.10;99.90;;;;;;5131658;27;20043;-63
2023/06/27 01:34:37;;;;;;;8.70;3.10;;;13.10;99.90;;;;;;5117845;27;20035;-63
2023/06/27 01:37:13;;;;;;;4.68;3.05;;;13.10;99.90;;;;;;5127055;27;20063;-63
2023/06/27 01:39:44;;;;;;;6.57;3.72;;;13.10;99.90;;;;;;5107572;27;20047;-62
2023/06/27 01:42:18;;;;;;;4.50;3.60;;;13.00;99.90;;;;;;5147087;27;20045;-62
2023/06/27 01:44:46;;;;;;;6.88;3.58;;;13.00;99.90;;;;;;5122027;27;20436;-62
2023/06/27 01:47:13;;;;;;;6.30;3.83;;;13.00;99.90;;;;;;5124978;27;20099;-64
2023/06/27 01:49:39;;;;;;;5.22;3.38;;;13.00;99.90;;;;;;5144332;27;20038;-62
2023/06/27 01:52:06;;;;;;;6.43;3.67;;;13.00;99.90;;;;;;5128570;27;20035;-63
2023/06/27 01:54:31;;;;;;;5.07;3.28;;;13.00;99.90;;;;;;5127724;27;20045;-64
2023/06/27 01:56:57;;;;;;;6.03;3.42;;;13.00;99.90;;;;;;5119444;27;20412;-64
2023/06/27 01:59:23;;;;;;;7.97;3.53;;;12.90;99.90;;;;;;5123936;27;20070;-61
2023/06/27 02:01:48;;;;;;;5.15;3.78;;;12.90;99.90;;;;;;5146175;27;20074;-62
2023/06/27 02:04:14;;;;;;;5.85;3.72;;;12.90;99.90;;;;;;5119573;27;20051;-64
2023/06/27 02:06:39;;;;;;;9.60;3.92;;;12.90;99.90;;;;;;5109611;27;20034;-62
2023/06/27 02:09:05;;;;;;;6.50;3.88;;;12.90;99.90;;;;;;5139843;27;20402;-62
2023/06/27 02:11:31;;;;;;;4.85;3.30;;;12.80;99.90;;;;;;5142383;27;20023;-63
2023/06/27 02:13:56;;;;;;;5.20;3.60;;;12.80;99.90;;;;;;5136637;27;20038;-62
2023/06/27 02:16:22;;;;;;;6.32;3.88;;;12.80;99.90;;;;;;5112569;27;20039;-62
2023/06/27 02:18:48;;;;;;;11.18;4.22;;;12.80;99.90;;;;;;5144685;27;20438;-63
2023/06/27 02:21:13;;;;;;;8.57;3.65;;;12.70;99.90;;;;;;5146981;27;20050;-63
2023/06/27 02:23:39;;;;;;;7.18;4.20;;;12.80;99.90;;;;;;5131796;27;20129;-62
2023/06/27 02:26:06;;;;;;;6.97;3.83;;;12.70;99.90;;;;;;5151153;27;20046;-63
2023/06/27 02:28:32;;;;;;;6.47;4.40;;;12.70;99.90;;;;;;5122539;27;20088;-63
2023/06/27 02:30:57;;;;;;;4.78;3.80;;;12.70;99.90;;;;;;5120663;27;20035;-63
2023/06/27 02:33:23;;;;;;;8.18;4.13;;;12.70;99.90;;;;;;5122250;27;20030;-64
2023/06/27 02:35:48;;;;;;;7.15;4.05;;;12.60;99.90;;;;;;5119447;27;20070;-63
2023/06/27 02:38:14;;;;;;;5.85;4.53;;;12.60;99.90;;;;;;5135534;27;20069;-63
2023/06/27 02:40:40;;;;;;;6.53;4.28;;;12.60;99.90;;;;;;5120624;27;20085;-63
2023/06/27 02:43:08;;;;;;;8.57;4.53;;;12.50;99.90;;;;;;5145705;27;20485;-63
2023/06/27 02:45:35;;;;;;;6.88;4.88;;;12.60;99.90;;;;;;5128545;27;20385;-63
2023/06/27 02:48:01;;;;;;;5.22;4.15;;;12.50;99.90;;;;;;5126305;27;20047;-62
2023/06/27 02:50:26;;;;;;;8.80;5.03;;;12.50;99.90;;;;;;5117537;27;20039;-63
2023/06/27 02:52:52;;;;;;;6.30;4.43;;;12.50;99.90;;;;;;5137190;27;20089;-63
2023/06/27 02:55:17;;;;;;;7.00;5.03;;;12.50;99.90;;;;;;5140919;27;20031;-64
2023/06/27 02:57:43;;;;;;;6.20;4.75;;;12.50;99.90;;;;;;5123136;27;20059;-62
2023/06/27 03:00:09;;;;;;;6.40;5.30;;;12.50;99.90;;;;;;5138296;27;20454;-63
2023/06/27 03:02:35;;;;;;;6.63;4.80;;;12.50;99.90;;;;;;5136165;27;20062;-63
2023/06/27 03:05:01;;;;;;;5.57;5.03;;;12.50;99.90;;;;;;5136568;27;20074;-63
2023/06/27 03:07:26;;;;;;;7.93;5.20;;;12.50;99.90;;;;;;5141610;27;20366;-61
2023/06/27 03:09:52;;;;;;;8.73;5.22;;;12.50;99.90;;;;;;5135933;27;20027;-63
2023/06/27 03:12:17;;;;;;;7.75;5.20;;;12.40;99.90;;;;;;5140075;27;20035;-62
2023/06/27 03:14:43;;;;;;;8.50;5.35;;;12.40;99.90;;;;;;5137374;27;20046;-62
2023/06/27 03:17:09;;;;;;;7.40;5.63;;;12.50;99.90;;;;;;5125564;27;20034;-63
2023/06/27 03:19:35;;;;;;;8.27;5.32;;;12.50;99.90;;;;;;5139586;27;20493;-62
2023/06/27 03:22:00;;;;;;;8.70;5.95;;;12.50;99.90;;;;;;5123467;27;20035;-62
2023/06/27 03:24:26;;;;;;;8.15;5.90;;;12.50;99.90;;;;;;5143201;27;20042;-63
2023/06/27 03:26:51;;;;;;;7.90;5.70;;;12.50;99.90;;;;;;5121413;27;20077;-61
2023/06/27 03:29:17;;;;;;;10.95;6.30;;;12.50;99.90;;;;;;5138285;27;20369;-62
2023/06/27 03:31:43;;;;;;;8.95;5.72;;;12.50;99.90;;;;;;5130103;27;20053;-64
2023/06/27 03:34:08;;;;;;;6.82;5.43;;;12.50;99.90;;;;;;5124210;27;21510;-63
2023/06/27 03:36:34;;;;;;;7.50;5.80;;;12.60;99.90;;;;;;5149470;27;20080;-63
2023/06/27 03:39:00;;;;;;;12.13;6.70;;;12.60;99.90;;;;;;5142795;27;20122;-62
2023/06/27 03:41:26;;;;;;;7.22;5.95;;;12.60;99.90;;;;;;5129775;27;20038;-62
2023/06/27 03:43:52;;;;;;;9.77;6.15;;;12.60;99.90;;;;;;5126034;27;20050;-64
2023/06/27 03:46:18;;;;;;;7.63;5.78;;;12.70;99.90;;;;;;5128459;27;20508;-62
2023/06/27 03:48:43;;;;;;;9.13;5.85;;;12.70;99.90;;;;;;5129369;27;20050;-62
2023/06/27 03:51:09;;;;;;;7.43;5.90;;;12.80;99.90;;;;;;5124768;27;20043;-62
2023/06/27 03:53:35;;;;;;;9.25;5.65;;;12.80;99.90;;;;;;5123397;27;20615;-63
2023/06/27 03:56:02;;;;;;;9.63;5.90;;;12.90;99.90;;;;;;5141131;27;20130;-63
2023/06/27 03:58:28;;;;;;;7.10;6.20;;;13.00;99.90;;;;;;5143551;27;20041;-62
2023/06/27 04:00:54;;;;;;;10.07;6.32;;;13.00;99.90;;;;;;5098208;28;20409;-63
2023/06/27 04:03:20;;;;;;;7.22;5.88;;;13.10;99.90;;;;;;5131981;27;20533;-63
2023/06/27 04:05:46;;;;;;;7.45;5.95;;;13.10;99.90;;;;;;5145540;27;20114;-63
2023/06/27 04:08:12;;;;;;;9.05;6.22;;;13.20;99.90;;;;;;5129886;27;20127;-62
2023/06/27 04:10:42;;;;;;;8.25;5.90;;;13.30;99.90;;;;;;5127584;27;20123;-64
2023/06/27 04:13:08;;;;;;;9.25;5.90;;;13.30;99.90;;;;;;5130065;27;20042;-62
2023/06/27 04:15:39;;;;;;;10.43;6.18;;;13.40;99.90;;;;;;5148195;27;20462;-61
2023/06/27 04:18:05;;;;;;;9.95;6.55;;;13.50;99.90;;;;;;5146392;27;20522;-62
2023/06/27 04:20:31;;;;;;;10.20;7.80;;;13.60;99.90;;;;;;5131417;27;20042;-62
2023/06/27 04:22:56;;;;;;;10.35;7.45;;;13.70;99.90;;;;;;5127335;27;20103;-63
2023/06/27 04:25:22;;;;;;;12.73;7.47;;;13.70;99.90;;;;;;5116780;27;20071;-61
2023/06/27 04:27:47;;;;;;;11.85;7.13;;;13.80;99.90;;;;;;5124006;27;20043;-61
2023/06/27 04:30:13;;;;;;;9.07;6.38;;;13.90;99.90;;;;;;5126904;27;20037;-61
2023/06/27 04:32:39;;;;;;;11.20;7.10;;;14.00;99.90;;;;;;5127222;27;20519;-62
2023/06/27 04:35:05;;;;;;;11.05;6.47;;;14.00;99.90;;;;;;5154701;27;20456;-61
2023/06/27 04:37:30;;;;;;;10.77;6.97;;;14.10;99.90;;;;;;5129831;27;20060;-62
2023/06/27 04:39:56;;;;;;;10.43;6.82;;;14.20;99.90;;;;;;5148626;27;20476;-62
2023/06/27 04:42:22;;;;;;;12.57;6.68;;;14.30;99.90;;;;;;5124589;27;20390;-61
2023/06/27 04:44:47;;;;;;;11.75;6.75;;;14.40;99.90;;;;;;5128631;27;20441;-63
2023/06/27 04:47:13;;;;;;;11.45;7.43;;;14.40;99.90;;;;;;5128803;27;20045;-62
2023/06/27 04:49:38;;;;;;;10.05;7.13;;;14.50;99.90;;;;;;5125254;27;20424;-61
2023/06/27 04:52:04;;;;;;;11.05;7.43;;;14.60;99.90;;;;;;5121019;27;20046;-63
2023/06/27 04:54:30;;;;;;;10.00;7.40;;;14.70;99.90;;;;;;5127469;27;20053;-63
2023/06/27 04:56:55;;;;;;;11.48;7.00;;;14.80;99.90;;;;;;5127501;27;20066;-63
2023/06/27 04:59:21;;;;;;;11.75;7.10;;;14.90;99.90;;;;;;5128432;27;20511;-63
2023/06/27 05:01:46;;;;;;;12.38;7.47;;;15.10;99.90;;;;;;5131551;27;20050;-63
2023/06/27 05:04:12;;;;;;;14.00;7.28;;;15.20;99.90;;;;;;5149169;27;20054;-62
2023/06/27 05:06:38;;;;;;;11.80;7.15;;;15.30;99.90;;;;;;5129432;27;20054;-61
2023/06/27 05:09:04;;;;;;;11.75;6.70;;;15.40;99.90;;;;;;5126373;27;20074;-62
2023/06/27 05:11:32;;;;;;;11.98;7.10;;;15.60;99.90;;;;;;5131213;27;20078;-63
2023/06/27 05:13:57;;;;;;;14.73;6.75;;;15.70;99.90;;;;;;5119272;27;20073;-63
2023/06/27 05:16:25;;;;;;;12.05;6.80;;;15.80;99.90;;;;;;5131626;27;20042;-62
2023/06/27 05:18:50;;;;;;;12.95;6.97;;;16.00;99.90;;;;;;5139985;27;20111;-63
2023/06/27 05:21:16;;;;;;;12.80;6.38;;;16.10;99.90;;;;;;5129819;27;20050;-62
2023/06/27 05:23:43;;;;;;;10.30;6.03;;;16.20;99.90;;;;;;5150798;27;20133;-62
2023/06/27 05:26:08;;;;;;;10.98;6.53;;;16.30;99.90;;;;;;5128965;27;20103;-63
2023/06/27 05:28:35;;;;;;;10.63;6.13;;;16.40;99.90;;;;;;5149351;27;20031;-63
2023/06/27 05:31:01;;;;;;;13.30;5.97;;;16.50;99.90;;;;;;5128562;27;20050;-63
2023/06/27 05:33:26;;;;;;;10.32;5.32;;;16.70;99.90;;;;;;5126610;27;20651;-62
2023/06/27 05:35:52;;;;;;;8.77;5.32;;;16.80;99.90;;;;;;5126099;27;20370;-63
2023/06/27 05:38:18;;;;;;;9.68;5.45;;;16.90;99.90;;;;;;5146343;27;20034;-62
2023/06/27 05:40:43;;;;;;;10.70;5.30;;;17.10;99.90;;;;;;5151839;27;20075;-63
2023/06/27 05:43:09;;;;;;;7.82;5.00;;;17.30;99.90;;;;;;5123476;27;20188;-63
2023/06/27 05:45:34;;;;;;;9.93;5.38;;;17.30;99.90;;;;;;5124231;27;20042;-63
2023/06/27 05:48:00;;;;;;;9.18;5.05;;;17.50;99.90;;;;;;5144454;27;20050;-62
2023/06/27 05:50:27;;;;;;;8.85;4.40;;;17.60;99.90;;;;;;5125385;27;20039;-63
2023/06/27 05:52:52;;;;;;;6.28;4.10;;;17.70;99.90;;;;;;5107750;27;20478;-63
2023/06/27 05:55:18;;;;;;;8.30;3.60;;;17.90;99.90;;;;;;5127009;27;20062;-62
2023/06/27 05:57:44;;;;;;;8.02;3.13;;;18.00;99.90;;;;;;5101285;27;20055;-63
2023/06/27 06:00:11;;;;;;;8.35;3.63;;;18.10;99.90;;;;;;5125333;27;20039;-64
2023/06/27 06:02:37;;;;;;;8.10;3.30;;;18.20;99.90;;;;;;5150274;27;20053;-62
2023/06/27 06:05:05;;;;;;;7.30;3.05;;;18.30;99.90;;;;;;5125878;27;20063;-62
2023/06/27 06:07:31;;;;;;;5.70;2.78;;;18.50;99.90;;;;;;5143799;27;20049;-63
2023/06/27 06:09:57;;;;;;;6.43;2.53;;;18.50;99.90;;;;;;5148286;27;20037;-63
2023/06/27 06:12:23;;;;;;;8.13;2.28;;;18.60;99.90;;;;;;5146465;27;20035;-63
2023/06/27 06:14:48;;;;;;;4.47;1.80;;;18.70;99.90;;;;;;5147516;27;20503;-63
2023/06/27 06:17:14;;;;;;;7.65;1.60;;;18.60;99.90;;;;;;5105647;27;20039;-62
2023/06/27 06:19:40;;;;;;;7.60;1.70;;;18.70;99.90;;;;;;5120600;27;20056;-63
2023/06/27 06:22:06;;;;;;;2.92;1.20;;;18.90;99.90;;;;;;5125279;27;20050;-62
2023/06/27 06:24:31;;;;;;;5.22;1.40;;;19.10;99.90;;;;;;5128027;27;20413;-64
2023/06/27 06:26:57;;;;;;;4.97;1.40;;;19.30;99.90;;;;;;5106008;27;20104;-63
2023/06/27 06:29:23;;;;;;;5.22;1.50;;;19.50;99.90;;;;;;5128361;27;20383;-64
2023/06/27 06:31:48;;;;;;;3.10;0.93;;;19.60;99.90;;;;;;5124048;27;20392;-64
2023/06/27 06:34:14;;;;;;;6.07;1.10;;;19.80;99.90;;;;;;5147011;27;20114;-63
2023/06/27 06:36:39;;;;;;;5.63;1.20;;;19.90;99.90;;;;;;5120295;27;20047;-63
2023/06/27 06:39:05;;;;;;;3.70;1.15;;;20.10;99.90;;;;;;5124341;27;20566;-63
2023/06/27 06:41:30;;;;;;;6.95;1.10;;;20.20;99.90;;;;;;5142818;27;20047;-64
2023/06/27 06:43:56;;;;;;;5.50;0.90;;;20.20;99.90;;;;;;5145773;27;20030;-63
2023/06/27 06:46:24;;;;;;;5.15;1.17;;;20.20;99.30;;;;;;5148380;27;20034;-63
2023/06/27 06:48:50;;;;;;;4.68;0.80;;;20.10;98.30;;;;;;5118725;27;20119;-62
2023/06/27 06:51:17;;;;;;;4.88;0.90;;;20.10;98.80;;;;;;5124708;27;20039;-63
2023/06/27 06:53:42;;;;;;;3.88;1.00;;;20.10;99.00;;;;;;5126363;27;20107;-63
2023/06/27 06:56:08;;;;;;;6.25;1.30;;;20.00;98.30;;;;;;5139180;27;20027;-62
2023/06/27 06:58:34;;;;;;;5.50;1.33;;;19.90;98.50;;;;;;5105627;27;20129;-64
2023/06/27 07:00:59;;;;;;;5.35;0.90;;;19.90;98.60;;;;;;5118934;27;20051;-63
2023/06/27 07:03:25;;;;;;;5.07;1.02;;;19.90;99.00;;;;;;5117649;27;20042;-63
2023/06/27 07:05:51;;;;;;;7.07;1.40;;;19.90;99.10;;;;;;5126588;27;20515;-63
2023/06/27 07:08:16;;;;;;;4.65;1.05;;;19.90;99.50;;;;;;5146269;27;20098;-62
2023/06/27 07:10:42;;;;;;;3.28;1.15;;;19.90;98.80;;;;;;5140444;27;20042;-62
2023/06/27 07:13:07;;;;;;;3.63;1.00;;;19.80;98.30;;;;;;5125877;27;20469;-64
2023/06/27 07:15:33;;;;;;;3.03;0.85;;;19.80;97.50;;;;;;5125173;27;20045;-63
2023/06/27 07:17:59;;;;;;;2.47;0.93;;;19.80;97.70;;;;;;5101457;27;20039;-63
2023/06/27 07:20:25;;;;;;;16.38;2.60;;;19.80;97.00;;;;;;5142926;27;20039;-64
2023/06/27 07:22:51;;;;;;;5.68;0.93;;;19.90;96.90;;;;;;5108888;27;20125;-63
2023/06/27 07:25:18;;;;;;;6.18;0.93;;;19.90;96.20;;;;;;5122968;27;20046;-61
2023/06/27 07:27:44;;;;;;;3.88;1.20;;;19.90;96.60;;;;;;5134310;27;20050;-64
2023/06/27 07:30:10;;;;;;;3.67;0.95;;;19.90;96.70;;;;;;5118554;27;20037;-64
2023/06/27 07:32:36;;;;;;;3.33;1.05;;;20.00;96.10;;;;;;5119419;27;20156;-62
2023/06/27 07:35:02;;;;;;;3.72;0.98;;;19.90;96.40;;;;;;5125823;27;20114;-63
2023/06/27 07:37:27;;;;;;;3.75;1.00;;;19.90;96.70;;;;;;5135754;27;20035;-63
2023/06/27 07:39:53;;;;;;;4.57;1.00;;;19.90;96.40;;;;;;5126541;27;20125;-63
2023/06/27 07:42:18;;;;;;;5.47;1.10;;;19.80;96.40;;;;;;5132888;27;20034;-62
2023/06/27 07:44:44;;;;;;;2.95;0.85;;;19.80;96.60;;;;;;5142369;27;20035;-63
2023/06/27 07:47:10;;;;;;;3.85;0.80;;;19.80;97.10;;;;;;5122042;27;20038;-63
2023/06/27 07:49:38;;;;;;;3.58;1.15;;;19.80;96.80;;;;;;5143501;27;20031;-63
2023/06/27 07:52:08;;;;;;;3.03;0.80;;;19.80;96.20;;;;;;5128948;27;20050;-63
2023/06/27 07:54:34;;;;;;;5.53;1.08;;;19.90;95.70;;;;;;5123055;27;20432;-63
2023/06/27 07:57:00;;;;;;;5.75;0.90;;;20.00;94.80;;;;;;5140562;27;20037;-62
2023/06/27 07:59:25;;;;;;;4.03;0.75;;;20.20;94.50;;;;;;5117350;27;20113;-63
2023/06/27 08:01:51;;;;;;;4.38;1.00;;;20.30;94.70;;;;;;5140962;27;20054;-63
2023/06/27 08:04:17;;;;;;;4.10;0.98;;;20.40;94.20;;;;;;5113807;27;20039;-64
2023/06/27 08:06:43;;;;;;;7.10;1.23;;;20.50;93.30;;;;;;5125316;27;20043;-64
2023/06/27 08:09:08;;;;;;;5.82;0.85;;;20.70;94.30;;;;;;5117675;27;20068;-63
2023/06/27 08:11:34;;;;;;;3.38;0.80;;;20.80;94.10;;;;;;5118006;27;20507;-63
2023/06/27 08:14:01;;;;;;;2.22;0.75;;;20.90;92.40;;;;;;5127467;27;20034;-63
2023/06/27 08:16:27;;;;;;;5.30;1.20;;;21.10;92.70;;;;;;5125273;27;20142;-62
2023/06/27 08:18:52;;;;;;;12.23;2.42;;;21.10;92.30;;;;;;5124674;27;20467;-63
2023/06/27 08:21:18;;;;;;;80.70;8.90;;;21.20;91.00;;;;;;5117868;27;20043;-61
2023/06/27 08:23:44;;;;;;;2.72;0.88;;;21.40;92.10;;;;;;5121536;27;20489;-63
2023/06/27 08:26:17;;;;;;;2.65;1.10;;;21.60;92.00;;;;;;5121703;28;20070;-63
2023/06/27 08:28:43;;;;;;;6.57;1.10;;;21.70;91.90;;;;;;5116560;27;20116;-63
2023/06/27 08:31:11;;;;;;;4.60;1.05;;;21.90;92.30;;;;;;5143272;27;20031;-63
2023/06/27 08:33:36;;;;;;;4.47;0.95;;;22.10;92.00;;;;;;5116811;27;20053;-63
2023/06/27 08:36:02;;;;;;;6.07;0.90;;;22.10;90.90;;;;;;5125292;27;20038;-63
2023/06/27 08:38:28;;;;;;;3.92;0.88;;;22.10;91.20;;;;;;5113446;27;20035;-63
2023/06/27 08:40:54;;;;;;;3.10;0.82;;;22.10;91.20;;;;;;5121663;27;20049;-62
2023/06/27 08:43:21;;;;;;;3.85;1.05;;;21.90;90.70;;;;;;5117372;28;20039;-63
2023/06/27 08:45:52;;;;;;;4.72;1.02;;;21.80;90.40;;;;;;5121444;27;20058;-62
2023/06/27 08:48:18;;;;;;;2.95;1.15;;;21.40;90.20;;;;;;5116260;27;20114;-63
2023/06/27 08:50:44;;;;;;;3.75;0.80;;;21.20;91.00;;;;;;5122700;27;20176;-65
2023/06/27 08:53:17;;;;;;;4.32;0.77;;;21.00;90.60;;;;;;5146512;27;20117;-64
2023/06/27 08:56:09;;;;;;;5.40;1.20;;;20.90;91.10;;;;;;5125290;27;20046;-63
2023/06/27 08:58:55;;;;;;;4.18;1.48;;;20.80;91.70;;;;;;5124392;27;20047;-63
2023/06/27 09:01:25;;;;;;;4.13;0.90;;;20.70;91.50;;;;;;5146442;27;20412;-64
2023/06/27 09:03:51;;;;;;;2.72;0.80;;;20.70;92.50;;;;;;5123992;27;20137;-63
2023/06/27 09:06:17;;;;;;;15.95;1.40;;;20.70;92.20;;;;;;5127046;27;20053;-63
2023/06/27 09:08:43;;;;;;;4.78;0.98;;;20.60;92.30;;;;;;5109076;27;20050;-62
2023/06/27 09:11:09;;;;;;;2.92;0.82;;;20.60;93.00;;;;;;5148156;27;20484;-63
2023/06/27 09:13:38;;;;;;;6.53;1.00;;;20.60;92.90;;;;;;5127047;27;20554;-62
2023/06/27 09:16:05;;;;;;;7.45;0.90;;;20.50;93.00;;;;;;5149790;27;20042;-63
2023/06/27 09:18:31;;;;;;;3.80;0.70;;;20.40;92.80;;;;;;5154271;27;20053;-63
2023/06/27 09:20:57;;;;;;;6.65;0.90;;;20.40;92.70;;;;;;5154446;27;20030;-62
2023/06/27 09:23:24;;;;;;;2.85;0.63;;;20.40;92.50;;;;;;5131578;27;20041;-64
2023/06/27 09:26:06;;;;;;;3.88;1.00;;;20.40;92.80;;;;;;5154000;27;20039;-63
2023/06/27 09:28:42;;;;;;;4.57;1.23;;;20.50;92.20;;;;;;5145975;27;20030;-64
2023/06/27 09:31:10;;;;;;;3.80;1.00;;;20.60;92.90;;;;;;5124143;27;20066;-64
2023/06/27 09:33:36;;;;;;;7.05;1.17;;;20.70;93.10;;;;;;5117769;27;20049;-63
2023/06/27 09:36:03;;;;;;;6.15;1.33;;;20.80;93.40;;;;;;5123422;27;20043;-62
2023/06/27 09:38:34;;;;;;;3.22;1.02;;;21.00;93.00;;;;;;5145165;27;20078;-62
2023/06/27 09:41:07;;;;;;;4.27;1.00;;;21.20;92.70;;;;;;5150128;27;20045;-61
2023/06/27 09:43:36;;;;;;;3.97;0.98;;;21.30;91.40;;;;;;5130684;27;20042;-63
2023/06/27 09:46:04;;;;;;;4.05;0.80;;;21.30;91.30;;;;;;5146903;27;20039;-62
2023/06/27 09:48:30;;;;;;;5.80;1.25;;;21.30;91.20;;;;;;5118143;27;20516;-63
2023/06/27 09:51:00;;;;;;;3.10;0.70;;;21.40;90.50;;;;;;5132212;27;20047;-62
2023/06/27 09:53:28;;;;;;;4.00;0.80;;;21.40;90.40;;;;;;5129796;27;20043;-63
2023/06/27 09:55:59;;;;;;;4.32;0.90;;;21.40;91.10;;;;;;5146610;27;20043;-64
2023/06/27 09:58:29;;;;;;;3.92;0.93;;;21.60;91.10;;;;;;5128320;27;20054;-62
2023/06/27 10:01:05;;;;;;;3.92;0.90;;;21.60;90.80;;;;;;5125665;27;20091;-63
2023/06/27 10:03:33;;;;;;;4.05;0.80;;;21.90;90.40;;;;;;5143999;27;20051;-63
2023/06/27 10:06:00;;;;;;;3.60;1.25;;;22.00;90.30;;;;;;5127607;27;20095;-62
2023/06/27 10:08:27;;;;;;;2.63;0.90;;;22.20;90.20;;;;;;5128384;27;20107;-63
2023/06/27 10:10:56;;;;;;;4.78;1.45;;;22.30;90.40;;;;;;5107622;27;20030;-63
2023/06/27 10:13:22;;;;;;;3.38;1.08;;;22.40;89.50;;;;;;5143979;27;20521;-61
2023/06/27 10:15:48;;;;;;;5.55;1.05;;;22.50;89.70;;;;;;5129285;27;20121;-62
2023/06/27 10:18:14;;;;;;;4.00;0.90;;;22.70;90.20;;;;;;5145707;27;20400;-62
2023/06/27 10:20:40;;;;;;;4.65;1.20;;;22.90;90.10;;;;;;5148148;27;20049;-63
2023/06/27 10:23:07;;;;;;;2.85;0.80;;;23.00;89.50;;;;;;5142282;27;20122;-62
2023/06/27 10:25:33;;;;;;;4.70;1.02;;;22.80;88.70;;;;;;5143496;27;20027;-63
2023/06/27 10:28:06;;;;;;;7.53;0.93;;;22.70;87.10;;;;;;5127420;27;20053;-62
2023/06/27 10:30:32;;;;;;;5.07;1.10;;;22.50;87.90;;;;;;5128379;27;20095;-63
2023/06/27 10:33:27;;;;;;;2.50;0.80;;;22.30;88.90;;;;;;5147975;27;20035;-61
2023/06/27 10:35:57;;;;;;;3.35;1.05;;;22.40;89.50;;;;;;5051113;28;20110;-63
2023/06/27 10:38:33;;;;;;;4.47;1.00;;;22.40;89.30;;;;;;5057571;28;20052;-62
2023/06/27 10:41:07;;;;;;;3.88;0.80;;;22.40;89.70;;;;;;5067403;28;20099;-63
2023/06/27 10:43:36;;;;;;;3.90;0.82;;;22.10;89.50;;;;;;5072745;28;20049;-61
2023/06/27 10:46:05;;;;;;;4.93;0.80;;;21.80;90.10;;;;;;5053697;28;20451;-62
2023/06/27 10:48:33;;;;;;;5.22;1.00;;;21.60;89.80;;;;;;5050944;28;20170;-64
2023/06/27 10:51:07;;;;;;;3.35;0.90;;;21.40;90.30;;;;;;5070931;28;20036;-62
2023/06/27 10:53:33;;;;;;;7.75;1.30;;;21.40;89.10;;;;;;5049943;28;20523;-62
2023/06/27 10:56:14;;;;;;;4.13;0.88;;;21.20;90.20;;;;;;5056261;28;20051;-62
2023/06/27 10:58:46;;;;;;;5.30;0.80;;;21.10;90.40;;;;;;5054984;28;20543;-62
2023/06/27 11:01:12;;;;;;;;;;;21.00;91.10;;;;;;5059281;28;20044;-62
2023/06/27 11:03:41;;;;;;;2.72;0.73;;;20.90;90.90;;;;;;5053050;28;20359;-63
2023/06/27 11:06:06;;;;;;;5.15;0.88;;;20.80;91.00;;;;;;5055090;28;20135;-63
2023/06/27 11:08:33;;;;;;;6.82;1.00;;;20.70;91.00;;;;;;5073405;28;20437;-63
2023/06/27 11:11:09;;;;;;;3.80;0.93;;;20.70;91.20;;;;;;5068627;28;20052;-62
2023/06/27 11:13:42;;;;;;;3.85;1.05;;;20.80;91.50;;;;;;5111738;27;20051;-61
2023/06/27 11:16:08;;;;;;;3.92;0.90;;;20.80;91.60;;;;;;5122998;27;20055;-61
2023/06/27 11:18:33;;;;;;;4.72;0.95;;;20.80;92.00;;;;;;5130387;27;20092;-62
2023/06/27 11:20:59;;;;;;;3.15;0.93;;;20.80;91.80;;;;;;5130086;27;20636;-63
2023/06/27 11:23:25;;;;;;;4.50;1.00;;;20.90;91.90;;;;;;5148328;27;20042;-63
2023/06/27 11:25:52;;;;;;;5.00;1.65;;;21.00;92.30;;;;;;5120646;27;20114;-62
2023/06/27 11:28:20;;;;;;;5.47;1.10;;;21.10;92.40;;;;;;5126459;27;20043;-63
2023/06/27 11:30:46;;;;;;;4.03;1.00;;;21.10;92.00;;;;;;5125317;27;20742;-63
2023/06/27 11:33:15;;;;;;;4.30;0.82;;;21.10;91.60;;;;;;5123137;27;20117;-62
2023/06/27 11:35:41;;;;;;;2.95;1.05;;;21.20;91.50;;;;;;5126914;27;20049;-62
2023/06/27 11:38:08;;;;;;;6.03;1.20;;;21.30;91.40;;;;;;5138139;27;20035;-62
2023/06/27 11:40:34;;;;;;;3.50;0.90;;;21.50;91.30;;;;;;5106686;27;20042;-63
2023/06/27 11:43:02;;;;;;;4.57;1.10;;;21.80;91.50;;;;;;5114210;27;20050;-63
2023/06/27 11:45:29;;;;;;;8.55;1.20;;;21.90;90.80;;;;;;5124248;27;20039;-63
2023/06/27 11:47:54;;;;;;;5.30;0.93;;;21.80;90.20;;;;;;5120621;27;20163;-62
2023/06/27 11:50:20;;;;;;;4.95;0.90;;;21.70;90.00;;;;;;5124581;27;20129;-61
2023/06/27 11:52:50;;;;;;;2.90;1.00;;;21.60;90.70;;;;;;5123290;27;20046;-62
2023/06/27 11:55:16;;;;;;;3.80;1.00;;;21.50;90.60;;;;;;5119366;27;20034;-62
2023/06/27 11:57:47;;;;;;;4.20;1.33;;;21.60;90.00;;;;;;5144650;27;20127;-63
2023/06/27 12:00:24;;;;;;;3.85;1.10;;;21.80;90.40;;;;;;5126015;27;20027;-63
2023/06/27 12:02:54;;;;;;;4.30;0.95;;;21.90;90.20;;;;;;5122027;27;20055;-62
2023/06/27 12:05:22;;;;;;;5.97;1.10;;;21.80;89.00;;;;;;5121557;27;20230;-62
2023/06/27 12:08:07;;;;;;;2.85;0.90;;;21.80;89.10;;;;;;5116334;27;20123;-62
2023/06/27 12:11:01;;;;;;;3.00;0.90;;;21.80;87.70;;;;;;5138621;27;20726;-62
2023/06/27 12:13:32;;;;;;;5.80;1.15;;;21.80;88.50;;;;;;5141576;27;20043;-63
2023/06/27 12:15:58;;;;;;;2.97;0.97;;;21.70;89.20;;;;;;5139651;27;20361;-62
2023/06/27 12:18:27;;;;;;;5.82;1.15;;;21.70;90.10;;;;;;5124504;27;20125;-62
2023/06/27 12:20:56;;;;;;;3.95;0.98;;;21.90;90.40;;;;;;5136791;27;20042;-62
2023/06/27 12:23:23;;;;;;;2.95;1.08;;;22.00;89.50;;;;;;5134913;27;20062;-63
2023/06/27 12:25:49;;;;;;;6.15;1.10;;;22.10;88.70;;;;;;5128552;27;20068;-64
2023/06/27 12:28:15;;;;;;;2.53;0.90;;;22.00;88.40;;;;;;5134530;27;20082;-63
2023/06/27 12:30:41;;;;;;;4.65;1.00;;;21.90;88.30;;;;;;5112853;27;20069;-63
2023/06/27 12:33:08;;;;;;;3.35;0.80;;;21.60;87.50;;;;;;5152879;27;20393;-67
2023/06/27 12:35:34;;;;;;;3.35;0.80;;;21.50;87.20;;;;;;5123872;27;20497;-61
2023/06/27 12:37:59;;;;;;;3.65;0.88;;;21.50;88.70;;;;;;5146824;27;20081;-63
2023/06/27 12:40:25;;;;;;;4.85;0.73;;;21.40;88.30;;;;;;5117179;27;20110;-63
2023/06/27 12:42:52;;;;;;;4.60;0.90;;;21.40;89.00;;;;;;5143251;27;20487;-63
2023/06/27 12:45:19;;;;;;;3.45;0.93;;;21.40;90.10;;;;;;5143811;27;20035;-64
2023/06/27 12:47:45;;;;;;;6.45;1.10;;;21.30;88.70;;;;;;5147355;27;20042;-62